Keswick, IA

4:27 PM CST on December 21, 2014 (GMT -0600)
Dietze Weather Station | Change Station
CLOSE
Current Station
Personal Weather Station
Location: Millersburg, IA
Elevation: 883 ft
Nearby Weather Stations

Elev 883 ft 41.57 °N, 92.16 °W | Updated 10 seconds ago

Overcast
Overcast
40.7 °F
Feels Like 37 °F
N
5.8
Wind Variable Wind from SE
Gusts 6.3 mph

Today
High -- | Low -- °F
--% Chance of Precip.
Yesterday
High -- | Low -- °F
Precip. -- in
7:31 AM 4:42 PM
Waning Crescent, 0% visible
Pressure 29.88 in
Visibility 7.0 miles
Clouds Overcast 2500 ft
Windchill 37 °F
Dew Point 37 °F
Humidity 87%
Rainfall 0.00 in
Snow Depth Not available.
UV 0 out of 12
Pollen .10 out of 12
Air Quality Not available.
Flu Activity Not available.
METAR KOOA 212215Z AUTO 16009KT 7SM OVC025 04/03 A2988 RMK AO2 T00430030

More Conditions Fewer Conditions

Pressure 29.88 in
Visibility 7.0 miles
Clouds Overcast 2500 ft
Windchill 37 °F
Dew Point 37 °F
Humidity 87%
Rainfall 0.00 in
Snow Depth Not available.
UV 0 out of 12
Pollen .10 out of 12
Air Quality Not available.
Flu Activity Not available.
METAR KOOA 212215Z AUTO 16009KT 7SM OVC025 04/03 A2988 RMK AO2 T00430030

More Conditions Fewer Conditions

10-Day Weather Forecast

Almanac

Astronomy

Dec. 21, 2014 Rise Set
Actual Time
Civil Twilight
Nautical Twilight
Astronomical Twilight
Moon
Length of Visible Light
Length of Day
Tomorrow will be .
, % of the Moon is Illuminated

Today's Extremes

State Highs State Lows

Community

WunderPhotos

Upload Photos

1,779,499 photos uploaded!

WunderBlogs® & News

Nearby

Air Quality

  Air Quality AQ Index Pollutant
Not available.

Snow Depth

Station Depth Elevation

Earthquake Activity

City Distance Mag. Time & Date
Minimum magnitude displayed is 2.5.

Coastal Water Temperatures

Place Temperature

Nearby Weather Stations